Time;durP1;ratioP1;P1;durP2;ratioP2;P2;SDS_P1;SDS_P2;PMS_P1;PMS_P2;Temp;Humidity;BMP_temperature;BMP_pressure;BME280_temperature;BME280_humidity;BME280_pressure;Samples;Min_cycle;Max_cycle;Signal;HPM_P1;HPM_P2
2024/01/30 00:02:01;;;;;;;98.40;39.20;;;;;;;1.49;61.07;102514.87;107942;1254;60507;-64
2024/01/30 00:04:29;;;;;;;100.90;40.40;;;;;;;1.52;61.02;102515.30;108094;1253;59497;-64
2024/01/30 00:06:56;;;;;;;107.40;45.20;;;;;;;1.52;60.97;102520.15;108121;1254;71675;-63
2024/01/30 00:09:24;;;;;;;96.30;40.20;;;;;;;1.50;61.01;102518.18;108147;1254;69454;-65
2024/01/30 00:11:52;;;;;;;120.00;50.00;;;;;;;1.49;61.14;102517.80;108141;1257;72421;-65
2024/01/30 00:14:19;;;;;;;104.10;44.60;;;;;;;1.49;61.26;102514.16;108126;1260;60453;-65
2024/01/30 00:16:47;;;;;;;106.00;45.60;;;;;;;1.53;61.27;102515.54;108126;1257;59119;-65
2024/01/30 00:19:15;;;;;;;121.70;50.40;;;;;;;1.55;61.24;102510.39;108127;1254;73053;-65
2024/01/30 00:21:42;;;;;;;120.10;48.00;;;;;;;1.57;61.02;102507.36;108116;1259;68389;-65
2024/01/30 00:24:10;;;;;;;127.00;50.40;;;;;;;1.61;61.08;102507.70;108078;1257;72488;-65
2024/01/30 00:26:38;;;;;;;127.90;50.60;;;;;;;1.38;61.46;102499.58;107978;1259;60586;-65
2024/01/30 00:29:05;;;;;;;116.10;46.90;;;;;;;1.23;61.92;102495.86;108104;1254;59735;-65
2024/01/30 00:31:33;;;;;;;125.50;51.00;;;;;;;1.39;61.55;102495.09;108201;1254;71331;-66
2024/01/30 00:34:01;;;;;;;123.20;46.00;;;;;;;1.56;60.77;102492.45;108011;1254;69898;-66
2024/01/30 00:36:30;;;;;;;120.30;48.80;;;;;;;1.47;60.95;102490.90;108014;1257;72716;-66
2024/01/30 00:38:57;;;;;;;117.00;47.70;;;;;;;1.49;60.90;102489.25;108043;1254;60497;-66
2024/01/30 00:41:25;;;;;;;101.90;41.60;;;;;;;1.46;60.97;102481.51;108006;1254;59074;-67
2024/01/30 00:43:52;;;;;;;118.20;50.20;;;;;;;1.55;60.78;102473.02;108043;1254;71747;-65
2024/01/30 00:46:20;;;;;;;108.20;46.30;;;;;;;1.72;60.26;102473.48;108042;1254;69756;-67
2024/01/30 00:48:47;;;;;;;113.80;46.00;;;;;;;1.48;60.64;102470.88;108041;1254;72710;-66
2024/01/30 00:51:15;;;;;;;101.60;43.00;;;;;;;1.38;61.07;102466.66;108074;1254;61631;-66
2024/01/30 00:53:42;;;;;;;100.90;41.50;;;;;;;1.35;61.07;102465.67;108089;1254;59337;-64
2024/01/30 00:56:10;;;;;;;112.40;44.80;;;;;;;1.45;60.95;102465.54;108052;1252;71850;-63
2024/01/30 00:58:38;;;;;;;101.10;41.20;;;;;;;1.59;60.47;102460.54;108078;1254;69259;-66
2024/01/30 01:01:07;;;;;;;102.70;43.00;;;;;;;1.60;60.42;102455.55;108095;1254;71680;-64
2024/01/30 01:03:35;;;;;;;94.80;39.90;;;;;;;1.61;60.22;102448.52;108052;1254;60487;-66
2024/01/30 01:06:03;;;;;;;84.20;35.20;;;;;;;1.61;60.07;102446.21;108032;1260;59509;-67
2024/01/30 01:08:31;;;;;;;77.80;34.70;;;;;;;1.61;59.89;102440.36;108159;1254;73514;-66
2024/01/30 01:10:58;;;;;;;76.60;33.30;;;;;;;1.63;59.80;102438.34;108220;1254;69071;-66
2024/01/30 01:13:26;;;;;;;70.20;32.40;;;;;;;1.67;59.66;102435.35;108074;1254;72666;-66
2024/01/30 01:15:54;;;;;;;73.60;32.30;;;;;;;1.72;59.44;102433.13;108038;1257;60769;-66
2024/01/30 01:18:21;;;;;;;71.90;30.90;;;;;;;1.65;59.32;102424.39;107972;1253;61025;-65
2024/01/30 01:20:49;;;;;;;70.60;30.70;;;;;;;1.59;59.25;102418.64;108091;1253;71852;-66
2024/01/30 01:23:16;;;;;;;76.10;31.60;;;;;;;1.71;58.93;102413.85;108104;1254;70239;-62
2024/01/30 01:25:44;;;;;;;67.00;30.90;;;;;;;1.76;58.66;102413.35;108008;1253;70510;-66
2024/01/30 01:28:12;;;;;;;67.20;30.20;;;;;;;1.68;58.87;102409.95;108057;1254;61644;-66
2024/01/30 01:30:40;;;;;;;68.60;31.80;;;;;;;1.64;58.88;102408.27;108029;1254;59026;-66
2024/01/30 01:33:09;;;;;;;62.70;29.30;;;;;;;1.73;58.82;102405.09;108073;1259;71067;-65
2024/01/30 01:35:37;;;;;;;69.30;31.40;;;;;;;1.81;58.53;102405.56;108111;1254;70277;-65
2024/01/30 01:38:04;;;;;;;61.40;28.90;;;;;;;1.85;58.56;102404.31;107969;1254;71496;-66
2024/01/30 01:40:32;;;;;;;63.90;28.40;;;;;;;1.93;58.35;102404.23;108090;1254;61792;-66
2024/01/30 01:43:03;;;;;;;68.10;30.60;;;;;;;1.93;58.42;102404.09;107936;1254;59679;-65
2024/01/30 01:45:30;;;;;;;64.30;29.30;;;;;;;1.96;58.56;102397.94;108082;1254;70693;-65
2024/01/30 01:47:58;;;;;;;75.80;32.30;;;;;;;2.03;58.46;102385.38;108085;1254;70285;-66
2024/01/30 01:50:26;;;;;;;68.00;31.30;;;;;;;1.97;58.50;102374.77;108108;1254;71382;-65
2024/01/30 01:52:54;;;;;;;72.10;32.60;;;;;;;1.91;58.69;102367.45;108109;1254;60722;-65
2024/01/30 01:55:23;;;;;;;79.90;35.90;;;;;;;1.85;58.67;102362.58;107976;1254;59509;-66
2024/01/30 01:57:51;;;;;;;83.10;37.00;;;;;;;1.81;58.64;102361.77;108132;1254;71823;-67
2024/01/30 02:00:19;;;;;;;77.90;37.00;;;;;;;1.88;58.55;102362.52;107973;1254;68111;-65
2024/01/30 02:02:47;;;;;;;76.90;33.60;;;;;;;1.80;58.69;102361.89;108154;1253;71391;-66
2024/01/30 02:05:15;;;;;;;72.80;32.20;;;;;;;1.86;58.69;102359.48;108129;1254;61756;-64
2024/01/30 02:07:43;;;;;;;74.80;31.20;;;;;;;1.84;58.59;102363.77;108198;1252;60022;-66
2024/01/30 02:10:11;;;;;;;62.80;26.90;;;;;;;1.88;58.59;102369.62;108117;1253;71818;-66
2024/01/30 02:12:40;;;;;;;61.80;25.80;;;;;;;1.93;58.81;102365.96;108016;1254;68951;-63
2024/01/30 02:15:08;;;;;;;55.40;24.90;;;;;;;1.86;59.01;102369.56;108050;1259;71422;-66
2024/01/30 02:17:35;;;;;;;54.80;24.30;;;;;;;1.81;59.14;102371.27;108104;1253;60668;-66
2024/01/30 02:20:05;;;;;;;58.30;25.50;;;;;;;1.83;59.17;102367.21;107923;1252;59499;-66
2024/01/30 02:22:33;;;;;;;52.10;23.00;;;;;;;1.80;59.00;102371.77;108078;1254;71848;-66
2024/01/30 02:25:01;;;;;;;53.00;24.30;;;;;;;1.76;59.17;102376.30;107968;1253;68864;-67
2024/01/30 02:27:28;;;;;;;55.40;25.40;;;;;;;1.79;58.83;102374.83;108076;1254;72683;-67
2024/01/30 02:29:56;;;;;;;54.70;23.90;;;;;;;1.74;58.96;102372.23;108093;1254;60479;-66
2024/01/30 02:32:23;;;;;;;56.30;23.30;;;;;;;1.77;58.99;102375.45;108115;1258;60010;-67
2024/01/30 02:34:51;;;;;;;50.30;21.80;;;;;;;1.77;58.58;102369.58;108207;1254;73442;-67
2024/01/30 02:37:19;;;;;;;56.80;23.00;;;;;;;1.77;58.44;102371.63;108041;1254;69165;-65
2024/01/30 02:39:46;;;;;;;53.50;23.20;;;;;;;1.77;58.47;102371.99;108070;1254;71451;-65
2024/01/30 02:42:14;;;;;;;47.60;22.10;;;;;;;1.74;58.39;102375.02;108068;1254;61073;-66
2024/01/30 02:44:42;;;;;;;46.90;21.50;;;;;;;1.68;58.46;102376.71;108235;1254;60235;-66
2024/01/30 02:47:09;;;;;;;46.40;21.60;;;;;;;1.66;58.08;102374.73;108132;1254;72821;-66
2024/01/30 02:49:37;;;;;;;47.10;23.40;;;;;;;1.62;58.19;102367.64;108063;1254;70277;-63
2024/01/30 02:52:05;;;;;;;47.50;22.10;;;;;;;1.57;58.01;102368.67;108087;1254;71288;-66
2024/01/30 02:54:32;;;;;;;47.20;22.10;;;;;;;1.49;57.86;102370.30;108051;1254;60591;-68
2024/01/30 02:57:00;;;;;;;43.10;21.00;;;;;;;1.42;57.93;102369.17;108116;1254;60411;-67
2024/01/30 02:59:28;;;;;;;46.70;22.20;;;;;;;1.34;58.04;102367.17;108152;1253;71643;-66
2024/01/30 03:01:55;;;;;;;41.50;20.20;;;;;;;1.24;57.97;102366.45;108045;1253;69056;-68
2024/01/30 03:04:23;;;;;;;55.80;25.40;;;;;;;1.21;58.31;102375.16;108304;1254;71347;-67
2024/01/30 03:06:51;;;;;;;54.80;22.90;;;;;;;1.09;58.24;102376.79;107934;1257;60598;-66
2024/01/30 03:09:18;;;;;;;55.00;23.90;;;;;;;1.02;57.99;102377.23;108196;1253;60690;-66
2024/01/30 03:11:46;;;;;;;51.40;22.70;;;;;;;0.88;58.10;102374.27;108062;1253;72577;-66
2024/01/30 03:14:14;;;;;;;43.10;21.60;;;;;;;0.79;58.07;102374.96;108051;1258;69202;-67
2024/01/30 03:16:41;;;;;;;47.60;22.40;;;;;;;0.83;57.87;102367.70;107995;1254;71303;-66
2024/01/30 03:19:09;;;;;;;54.40;23.80;;;;;;;0.74;57.97;102369.04;108109;1254;60924;-66
2024/01/30 03:21:37;;;;;;;47.80;22.00;;;;;;;0.68;57.75;102368.48;108172;1253;60334;-67
2024/01/30 03:24:05;;;;;;;60.60;27.70;;;;;;;0.60;57.77;102375.42;108155;1254;72520;-67
2024/01/30 03:26:32;;;;;;;74.00;32.20;;;;;;;0.53;57.74;102376.36;108107;1254;70885;-67
2024/01/30 03:29:00;;;;;;;69.00;30.70;;;;;;;0.45;57.64;102373.77;108065;1254;72419;-66
2024/01/30 03:31:27;;;;;;;65.80;29.90;;;;;;;0.37;58.15;102370.18;108057;1254;60417;-67
2024/01/30 03:33:55;;;;;;;55.70;24.90;;;;;;;0.35;58.15;102365.11;108060;1254;60309;-67
2024/01/30 03:36:23;;;;;;;69.60;29.80;;;;;;;0.30;58.60;102365.57;108107;1254;72603;-65
2024/01/30 03:38:50;;;;;;;67.10;28.80;;;;;;;0.27;58.51;102365.81;108155;1254;69151;-65
2024/01/30 03:41:18;;;;;;;61.80;25.00;;;;;;;0.27;58.91;102360.10;108004;1253;72517;-67
2024/01/30 03:43:46;;;;;;;60.80;27.20;;;;;;;0.27;58.82;102350.41;108061;1254;60455;-65
2024/01/30 03:46:14;;;;;;;59.00;26.80;;;;;;;0.21;58.77;102352.59;108086;1253;60324;-65
2024/01/30 03:48:42;;;;;;;60.10;28.40;;;;;;;0.20;58.83;102349.98;108263;1254;72817;-66
2024/01/30 03:51:14;;;;;;;56.30;25.90;;;;;;;0.18;58.68;102343.15;108165;1254;69234;-66
2024/01/30 03:53:42;;;;;;;54.10;23.90;;;;;;;0.13;58.92;102341.40;108128;1254;75656;-64
2024/01/30 03:56:10;;;;;;;58.10;26.30;;;;;;;0.02;59.40;102340.95;108105;1254;62217;-67
2024/01/30 03:58:37;;;;;;;56.50;25.40;;;;;;;-0.03;59.20;102340.74;108204;1254;60411;-66
2024/01/30 04:01:06;;;;;;;57.00;24.80;;;;;;;-0.01;59.42;102340.98;108081;1254;72257;-66
2024/01/30 04:03:33;;;;;;;57.00;27.30;;;;;;;-0.05;59.27;102332.87;108200;1254;69085;-66
2024/01/30 04:06:01;;;;;;;52.20;25.70;;;;;;;-0.10;59.56;102333.53;108038;1253;72688;-67
2024/01/30 04:08:29;;;;;;;54.00;25.90;;;;;;;-0.13;59.93;102332.17;108031;1259;60401;-66
2024/01/30 04:10:56;;;;;;;62.20;26.80;;;;;;;-0.08;59.71;102334.48;108055;1253;60502;-66
2024/01/30 04:13:24;;;;;;;57.90;25.70;;;;;;;-0.03;60.20;102337.45;108052;1254;72850;-66
2024/01/30 04:15:52;;;;;;;58.90;26.30;;;;;;;-0.01;60.06;102338.57;108148;1253;68824;-68
2024/01/30 04:18:19;;;;;;;59.40;25.60;;;;;;;0.02;60.08;102337.98;108100;1254;71246;-66
2024/01/30 04:20:47;;;;;;;57.90;24.90;;;;;;;0.02;60.66;102337.84;108046;1253;60456;-65
2024/01/30 04:23:14;;;;;;;56.20;26.20;;;;;;;0.04;60.61;102341.17;108036;1252;60343;-64
2024/01/30 04:25:42;;;;;;;55.00;23.30;;;;;;;0.05;60.85;102337.59;108158;1254;73115;-66
2024/01/30 04:28:11;;;;;;;61.70;27.40;;;;;;;0.07;60.81;102332.54;108055;1253;68789;-66
2024/01/30 04:30:39;;;;;;;61.70;27.60;;;;;;;0.10;61.09;102331.78;108214;1254;72519;-66
2024/01/30 04:33:07;;;;;;;61.70;25.80;;;;;;;0.07;61.09;102335.29;108111;1254;60711;-65
2024/01/30 04:35:34;;;;;;;65.60;27.90;;;;;;;-0.03;60.96;102332.09;108223;1253;60458;-66
2024/01/30 04:38:02;;;;;;;63.40;25.60;;;;;;;-0.23;61.43;102326.94;107908;1253;72579;-65
2024/01/30 04:40:30;;;;;;;55.60;25.50;;;;;;;-0.29;61.66;102329.11;108192;1254;68232;-67
2024/01/30 04:42:57;;;;;;;59.40;25.90;;;;;;;-0.34;61.68;102325.28;108041;1254;71448;-67
2024/01/30 04:45:25;;;;;;;55.30;25.20;;;;;;;-0.25;61.74;102324.64;108087;1254;61738;-67
2024/01/30 04:47:52;;;;;;;54.40;24.30;;;;;;;-0.19;61.57;102322.45;108174;1253;60323;-66
2024/01/30 04:50:20;;;;;;;52.40;23.10;;;;;;;-0.20;61.68;102319.28;108112;1254;73042;-66
2024/01/30 04:52:47;;;;;;;52.00;24.20;;;;;;;-0.19;61.84;102320.00;108020;1254;69077;-68
2024/01/30 04:55:15;;;;;;;58.10;25.90;;;;;;;-0.20;61.61;102322.23;108070;1257;72459;-67
2024/01/30 04:57:44;;;;;;;56.90;25.40;;;;;;;-0.08;61.83;102317.38;108122;1257;60908;-65
2024/01/30 05:00:12;;;;;;;60.30;27.60;;;;;;;0.04;61.78;102317.52;108115;1254;60434;-66
2024/01/30 05:02:40;;;;;;;54.40;25.20;;;;;;;0.07;61.64;102314.02;108095;1254;74900;-67
2024/01/30 05:05:08;;;;;;;54.30;26.20;;;;;;;0.14;61.75;102314.50;108206;1254;69608;-65
2024/01/30 05:07:36;;;;;;;58.90;26.00;;;;;;;0.13;61.45;102314.28;108258;1253;72652;-67
2024/01/30 05:10:04;;;;;;;57.30;26.60;;;;;;;0.17;61.28;102313.73;108038;1254;60550;-67
2024/01/30 05:12:33;;;;;;;60.60;26.30;;;;;;;0.26;61.27;102306.65;108035;1254;60105;-66
2024/01/30 05:15:01;;;;;;;57.40;25.60;;;;;;;0.27;61.09;102303.59;108066;1253;71944;-68
2024/01/30 05:17:29;;;;;;;55.70;25.60;;;;;;;0.22;61.09;102304.95;108003;1254;68991;-65
2024/01/30 05:19:56;;;;;;;55.50;25.50;;;;;;;0.15;61.21;102304.33;108027;1254;71384;-66
2024/01/30 05:22:24;;;;;;;56.60;26.90;;;;;;;0.13;60.98;102307.38;108168;1254;60492;-66
2024/01/30 05:24:51;;;;;;;60.10;26.20;;;;;;;0.10;61.18;102309.30;108073;1253;60353;-66
2024/01/30 05:27:19;;;;;;;58.80;25.20;;;;;;;0.14;60.71;102313.28;108078;1253;72734;-66
2024/01/30 05:29:47;;;;;;;53.10;24.10;;;;;;;0.17;60.67;102312.54;108098;1254;70366;-66
2024/01/30 05:32:14;;;;;;;60.60;27.50;;;;;;;0.17;61.07;102314.61;108080;1254;72391;-68
2024/01/30 05:34:42;;;;;;;57.80;26.50;;;;;;;0.13;61.28;102313.61;108069;1257;60403;-67
2024/01/30 05:37:14;;;;;;;54.90;25.50;;;;;;;-0.03;61.89;102317.59;108022;1254;60302;-66
2024/01/30 05:39:42;;;;;;;60.70;28.70;;;;;;;-0.18;62.49;102313.50;108095;1253;72316;-67
2024/01/30 05:42:10;;;;;;;56.30;24.50;;;;;;;-0.12;62.61;102319.61;108100;1254;68696;-67
2024/01/30 05:44:37;;;;;;;50.80;25.00;;;;;;;-0.04;62.94;102319.42;108039;1254;71399;-66
2024/01/30 05:47:05;;;;;;;57.60;25.30;;;;;;;0.06;62.82;102312.79;108037;1254;60456;-67
2024/01/30 05:49:33;;;;;;;48.20;23.60;;;;;;;0.15;62.63;102315.23;108070;1256;60434;-67
2024/01/30 05:52:02;;;;;;;50.80;24.40;;;;;;;0.23;62.44;102320.53;108028;1254;73331;-66
2024/01/30 05:54:30;;;;;;;40.90;21.30;;;;;;;0.17;62.63;102317.71;108087;1253;68926;-67
2024/01/30 05:56:58;;;;;;;45.40;21.90;;;;;;;0.13;62.68;102317.39;108087;1253;71702;-67
2024/01/30 05:59:25;;;;;;;54.40;25.30;;;;;;;0.19;62.76;102324.02;108068;1252;60400;-66
2024/01/30 06:01:53;;;;;;;51.60;22.80;;;;;;;0.22;62.76;102325.50;108106;1254;60389;-66
2024/01/30 06:04:21;;;;;;;50.30;24.70;;;;;;;0.29;62.69;102325.44;108129;1252;72661;-67
2024/01/30 06:06:49;;;;;;;54.40;24.40;;;;;;;0.37;62.73;102320.91;108107;1253;68860;-65
2024/01/30 06:09:17;;;;;;;54.90;25.80;;;;;;;0.44;62.63;102322.75;107900;1254;74654;-67
2024/01/30 06:11:45;;;;;;;53.40;24.10;;;;;;;0.51;62.41;102327.00;108072;1253;61623;-66
2024/01/30 06:14:12;;;;;;;54.20;25.10;;;;;;;0.52;62.57;102324.13;108090;1253;61029;-67
2024/01/30 06:16:40;;;;;;;51.80;23.70;;;;;;;0.64;62.72;102324.59;108019;1254;73882;-67
2024/01/30 06:19:08;;;;;;;49.30;23.20;;;;;;;0.72;62.39;102322.29;108079;1258;68643;-66
2024/01/30 06:21:46;;;;;;;50.60;23.70;;;;;;;0.71;62.53;102319.98;108013;1254;71364;-67
2024/01/30 06:24:30;;;;;;;64.50;27.50;;;;;;;0.85;62.36;102315.55;107892;1252;61679;-67
2024/01/30 06:26:57;;;;;;;51.60;24.10;;;;;;;1.07;62.05;102317.04;108081;1252;60426;-67
2024/01/30 06:29:26;;;;;;;60.80;27.20;;;;;;;1.23;61.69;102310.34;108072;1254;74038;-66
2024/01/30 06:31:55;;;;;;;;;;;;;;;1.36;61.29;102312.91;108122;1253;70067;-67
2024/01/30 06:34:23;;;;;;;63.60;26.30;;;;;;;1.42;61.15;102315.90;108082;1254;71431;-67
2024/01/30 06:36:50;;;;;;;71.90;30.40;;;;;;;1.56;61.54;102311.86;108054;1252;62675;-68
2024/01/30 06:39:18;;;;;;;74.50;32.00;;;;;;;2.07;62.42;102308.73;108108;1254;60296;-68
2024/01/30 06:41:46;;;;;;;68.70;31.10;;;;;;;2.77;62.85;102309.34;108089;1254;73818;-67
2024/01/30 06:44:14;;;;;;;63.00;29.40;;;;;;;3.53;62.49;102309.23;108076;1252;70272;-67
2024/01/30 06:46:42;;;;;;;65.10;29.80;;;;;;;4.20;61.20;102306.08;108120;1254;71794;-67
2024/01/30 06:49:09;;;;;;;53.50;26.80;;;;;;;4.81;58.00;102304.15;108010;1254;60991;-67
2024/01/30 06:51:37;;;;;;;58.00;27.60;;;;;;;5.44;56.95;102304.89;108190;1252;60315;-67
2024/01/30 06:54:04;;;;;;;51.80;24.90;;;;;;;6.11;55.03;102301.04;108169;1253;72857;-67
2024/01/30 06:56:34;;;;;;;49.10;26.40;;;;;;;6.69;52.98;102297.17;108104;1254;70752;-68
2024/01/30 06:59:19;;;;;;;46.80;24.40;;;;;;;7.24;51.00;102295.26;108074;1253;71585;-67
2024/01/30 07:01:47;;;;;;;46.40;23.30;;;;;;;7.62;47.85;102285.35;108036;1259;60481;-67
2024/01/30 07:04:15;;;;;;;43.00;23.00;;;;;;;7.89;46.92;102284.90;108025;1254;60082;-68
2024/01/30 07:06:43;;;;;;;42.70;23.60;;;;;;;8.22;46.36;102286.02;107957;1252;73884;-69
2024/01/30 07:09:12;;;;;;;38.80;21.30;;;;;;;8.76;46.04;102286.21;108099;1254;69227;-67
2024/01/30 07:11:39;;;;;;;45.50;22.50;;;;;;;9.26;45.67;102285.17;108048;1254;73848;-68
2024/01/30 07:14:09;;;;;;;45.40;21.80;;;;;;;9.71;44.39;102282.11;108016;1254;61136;-66
2024/01/30 07:16:36;;;;;;;39.80;21.40;;;;;;;10.21;43.66;102278.59;108064;1254;60345;-69
2024/01/30 07:19:04;;;;;;;39.70;20.90;;;;;;;10.61;40.94;102279.42;108000;1259;72678;-66
2024/01/30 07:21:32;;;;;;;33.00;19.50;;;;;;;10.80;39.40;102276.38;108164;1254;68937;-65
2024/01/30 07:23:59;;;;;;;36.30;20.00;;;;;;;10.82;39.58;102278.66;108125;1254;71501;-67
2024/01/30 07:26:27;;;;;;;33.50;19.00;;;;;;;11.03;39.14;102271.00;107777;1254;60431;-66
2024/01/30 07:28:56;;;;;;;31.70;17.70;;;;;;;11.30;37.95;102260.30;108181;1254;60410;-69
2024/01/30 07:31:24;;;;;;;32.80;18.60;;;;;;;11.65;38.26;102254.61;108163;1254;73761;-68
2024/01/30 07:33:52;;;;;;;33.30;17.30;;;;;;;11.93;36.99;102252.13;108125;1253;68872;-68
2024/01/30 07:36:20;;;;;;;28.60;17.20;;;;;;;12.27;36.85;102248.64;108095;1254;71483;-67
2024/01/30 07:38:48;;;;;;;28.60;17.50;;;;;;;12.64;35.76;102247.70;108082;1253;60413;-68
2024/01/30 07:41:15;;;;;;;26.10;16.20;;;;;;;12.84;34.58;102247.30;108069;1252;60259;-67
2024/01/30 07:43:43;;;;;;;28.70;16.50;;;;;;;13.00;34.30;102244.43;108095;1254;73941;-66
2024/01/30 07:46:11;;;;;;;27.10;15.10;;;;;;;13.04;33.69;102244.74;108082;1253;69940;-67
2024/01/30 07:48:38;;;;;;;27.80;15.40;;;;;;;13.06;33.10;102250.00;108133;1252;75335;-66
2024/01/30 07:51:06;;;;;;;26.60;15.90;;;;;;;12.95;33.25;102255.44;108105;1252;60335;-66
2024/01/30 07:53:34;;;;;;;25.60;15.50;;;;;;;12.74;33.00;102249.70;108060;1253;60175;-68
2024/01/30 07:56:02;;;;;;;24.60;14.90;;;;;;;13.04;33.34;102245.63;108133;1254;72788;-67
2024/01/30 07:58:30;;;;;;;24.80;15.40;;;;;;;13.09;32.38;102243.95;108121;1254;68990;-67
2024/01/30 08:00:58;;;;;;;23.70;14.60;;;;;;;13.09;32.19;102240.96;108143;1254;71409;-67
2024/01/30 08:03:26;;;;;;;21.80;14.40;;;;;;;13.24;32.86;102245.35;108058;1254;60522;-67
2024/01/30 08:05:54;;;;;;;23.50;13.90;;;;;;;13.57;31.93;102238.70;108108;1254;61021;-67
2024/01/30 08:08:22;;;;;;;21.70;13.30;;;;;;;14.04;31.78;102237.73;108074;1253;72606;-66
2024/01/30 08:10:49;;;;;;;24.30;14.30;;;;;;;14.22;31.17;102237.94;108082;1253;70118;-67
2024/01/30 08:13:17;;;;;;;22.60;14.80;;;;;;;14.08;30.40;102229.02;108080;1257;71287;-68
2024/01/30 08:15:45;;;;;;;26.10;13.50;;;;;;;14.13;30.71;102228.20;108062;1254;60411;-67
2024/01/30 08:18:12;;;;;;;20.60;13.60;;;;;;;14.07;30.20;102225.48;108063;1253;60454;-68
2024/01/30 08:20:40;;;;;;;22.00;13.30;;;;;;;14.31;30.58;102226.10;108106;1253;73661;-67
2024/01/30 08:23:07;;;;;;;20.60;12.50;;;;;;;14.69;30.30;102225.20;108095;1254;72362;-68
2024/01/30 08:25:36;;;;;;;22.50;14.20;;;;;;;14.90;29.35;102219.64;108011;1257;73125;-67
2024/01/30 08:28:04;;;;;;;20.40;13.00;;;;;;;14.96;29.40;102218.42;108129;1252;60368;-67
2024/01/30 08:30:32;;;;;;;22.40;13.10;;;;;;;14.81;29.30;102218.58;108107;1257;60347;-68
2024/01/30 08:32:59;;;;;;;22.90;13.60;;;;;;;14.45;29.26;102220.71;108102;1252;74547;-66
2024/01/30 08:35:27;;;;;;;21.90;14.50;;;;;;;14.32;29.82;102220.61;108152;1254;70271;-68
2024/01/30 08:37:55;;;;;;;25.30;15.20;;;;;;;13.81;30.09;102212.89;108003;1257;71985;-67
2024/01/30 08:40:22;;;;;;;28.00;14.50;;;;;;;13.43;30.54;102212.42;108048;1257;59191;-68
2024/01/30 08:42:50;;;;;;;22.20;12.90;;;;;;;13.18;31.33;102217.21;108242;1254;60408;-67
2024/01/30 08:45:18;;;;;;;23.50;13.40;;;;;;;13.10;31.12;102219.63;108226;1252;72785;-68
2024/01/30 08:47:45;;;;;;;27.00;13.90;;;;;;;13.24;31.22;102211.84;108004;1254;69960;-67
2024/01/30 08:50:13;;;;;;;23.90;13.00;;;;;;;13.41;31.22;102208.77;108072;1254;71547;-67
2024/01/30 08:52:41;;;;;;;23.90;13.60;;;;;;;13.80;30.51;102201.95;108099;1252;60339;-68
2024/01/30 08:55:09;;;;;;;23.70;13.30;;;;;;;14.08;30.03;102194.92;108087;1252;60489;-68
2024/01/30 08:57:37;;;;;;;19.00;12.60;;;;;;;14.28;29.69;102189.94;108067;1254;75445;-68
2024/01/30 09:00:06;;;;;;;21.80;13.70;;;;;;;14.73;29.75;102185.32;108031;1256;69511;-68
2024/01/30 09:02:34;;;;;;;21.50;14.40;;;;;;;15.12;29.03;102179.33;108038;1254;71267;-68
2024/01/30 09:05:03;;;;;;;23.30;12.60;;;;;;;15.41;28.11;102180.94;108200;1253;61325;-68
2024/01/30 09:07:31;;;;;;;25.60;13.40;;;;;;;15.43;28.32;102181.41;108115;1253;60443;-68
2024/01/30 09:09:59;;;;;;;21.40;13.30;;;;;;;15.05;28.32;102178.42;108131;1254;72830;-69
2024/01/30 09:12:27;;;;;;;20.30;12.50;;;;;;;15.30;28.47;102177.84;108124;1252;70267;-69
2024/01/30 09:14:55;;;;;;;17.40;12.50;;;;;;;15.61;28.25;102176.20;108329;1253;75026;-68
2024/01/30 09:17:22;;;;;;;22.10;12.90;;;;;;;15.91;27.50;102165.89;108059;1254;60324;-69
2024/01/30 09:19:50;;;;;;;19.60;14.10;;;;;;;15.93;27.30;102161.77;108108;1253;60184;-67
2024/01/30 09:22:17;;;;;;;20.60;12.90;;;;;;;15.79;27.38;102164.96;108107;1252;73993;-68
2024/01/30 09:24:45;;;;;;;25.80;13.50;;;;;;;15.58;27.41;102159.10;108101;1256;70059;-68
2024/01/30 09:27:13;;;;;;;24.80;14.40;;;;;;;15.75;27.82;102154.61;108044;1254;71094;-66
2024/01/30 09:29:40;;;;;;;20.40;11.80;;;;;;;16.11;27.29;102152.23;108087;1255;60430;-68
2024/01/30 09:32:08;;;;;;;22.20;13.10;;;;;;;16.67;27.00;102140.66;108097;1253;59210;-68
2024/01/30 09:34:36;;;;;;;26.40;13.80;;;;;;;16.99;26.45;102131.73;108023;1253;73895;-68
2024/01/30 09:37:04;;;;;;;22.90;13.20;;;;;;;16.87;26.04;102134.94;108028;1253;70776;-68
2024/01/30 09:39:32;;;;;;;24.20;13.30;;;;;;;16.77;26.35;102135.55;108070;1253;72961;-68
2024/01/30 09:42:28;;;;;;;21.80;13.10;;;;;;;16.99;26.34;102131.72;108047;1253;60265;-69
2024/01/30 09:44:56;;;;;;;21.90;13.50;;;;;;;17.19;25.60;102117.08;108114;1253;62112;-68
2024/01/30 09:47:24;;;;;;;26.50;14.50;;;;;;;17.35;26.06;102109.40;108083;1252;76331;-69
2024/01/30 09:49:51;;;;;;;24.40;12.60;;;;;;;17.03;25.79;102112.43;108023;1254;68959;-67
2024/01/30 09:52:19;;;;;;;24.60;14.00;;;;;;;16.82;26.00;102111.65;107883;1255;71671;-69
2024/01/30 09:54:47;;;;;;;23.10;13.50;;;;;;;16.86;26.36;102104.64;108188;1254;60381;-69
2024/01/30 09:57:15;;;;;;;21.50;13.10;;;;;;;16.88;25.87;102101.37;108061;1258;60277;-70
2024/01/30 09:59:43;;;;;;;20.60;13.60;;;;;;;17.04;25.96;102102.11;108058;1254;75986;-68
2024/01/30 10:02:11;;;;;;;23.70;13.60;;;;;;;17.13;25.93;102095.96;108062;1254;68986;-69
2024/01/30 10:04:39;;;;;;;22.20;12.90;;;;;;;16.83;25.69;102097.08;108098;1254;72894;-69
2024/01/30 10:07:07;;;;;;;20.40;13.40;;;;;;;16.98;26.56;102101.73;108181;1254;60424;-67
2024/01/30 10:09:35;;;;;;;20.60;13.30;;;;;;;17.35;25.90;102101.05;108172;1254;60313;-69
2024/01/30 10:12:03;;;;;;;20.80;12.30;;;;;;;17.73;25.39;102099.73;108032;1252;74449;-69
2024/01/30 10:14:31;;;;;;;20.50;11.90;;;;;;;17.83;25.13;102098.36;108129;1252;69075;-69
2024/01/30 10:16:59;;;;;;;23.70;12.80;;;;;;;17.86;24.82;102096.65;108078;1254;72758;-70
2024/01/30 10:19:26;;;;;;;22.80;13.50;;;;;;;18.04;25.16;102089.75;108047;1252;59656;-69
2024/01/30 10:21:54;;;;;;;21.80;12.70;;;;;;;18.08;24.68;102084.99;108066;1252;61420;-68
2024/01/30 10:24:26;;;;;;;22.00;13.60;;;;;;;18.29;24.80;102086.33;108043;1252;76100;-68
2024/01/30 10:26:53;;;;;;;23.40;13.50;;;;;;;18.66;25.01;102081.36;108094;1253;72329;-70
2024/01/30 10:29:21;;;;;;;19.40;12.50;;;;;;;18.48;24.10;102078.65;108099;1254;74939;-70
2024/01/30 10:32:02;;;;;;;21.90;13.00;;;;;;;18.15;24.75;102079.74;108086;1254;60536;-68
2024/01/30 10:34:30;;;;;;;24.90;12.80;;;;;;;18.20;25.17;102078.15;108148;1253;62421;-69
2024/01/30 10:37:01;;;;;;;23.50;12.60;;;;;;;18.24;24.64;102078.88;108064;1253;74542;-69
2024/01/30 10:39:30;;;;;;;23.90;13.90;;;;;;;18.10;24.77;102078.34;108092;1254;70468;-69
2024/01/30 10:42:01;;;;;;;19.00;12.80;;;;;;;17.86;24.99;102081.17;108085;1256;71298;-69
2024/01/30 10:44:29;;;;;;;21.60;13.50;;;;;;;17.95;25.20;102076.41;107913;1254;60407;-68
2024/01/30 10:47:01;;;;;;;19.90;13.10;;;;;;;18.13;25.10;102077.36;107632;1254;169790;-68
2024/01/30 10:50:18;;;;;;;23.70;13.30;;;;;;;17.15;25.84;102081.79;105074;1289;600301;-69
2024/01/30 10:52:46;;;;;;;20.80;13.40;;;;;;;17.98;24.90;102073.45;107301;1269;60336;-68
2024/01/30 10:55:14;;;;;;;23.10;13.60;;;;;;;18.27;24.47;102072.39;107375;1266;61719;-67
2024/01/30 10:57:42;;;;;;;19.20;11.90;;;;;;;18.46;24.28;102061.31;107349;1264;71345;-69
2024/01/30 11:00:15;;;;;;;20.00;12.20;;;;;;;18.72;24.23;102062.08;108140;1251;70175;-69
2024/01/30 11:02:44;;;;;;;20.40;12.00;;;;;;;18.24;24.31;102058.27;108155;1251;72940;-70
2024/01/30 11:05:12;;;;;;;18.80;11.80;;;;;;;17.51;24.57;102061.64;108057;1254;60554;-69
2024/01/30 11:07:43;;;;;;;18.40;12.10;;;;;;;17.56;24.93;102055.06;108389;1251;59147;-67
2024/01/30 11:10:14;;;;;;;16.80;10.90;;;;;;;17.83;24.96;102048.07;108409;1251;71514;-68